Airfield :







YOU CAN JOIN US ON...

 
LOGIN :

Register | Disclaimer

   EN    FR    IT 

 









Legend :    VFR   Marginal VFR   IFR   Intensive IFR   Very Intensive IFR
Visi :
Ceiling :
>= 8 km
>= 3000ft
5 to 8 km
1000 to 3000 ft
1500m to 5 km
500 to 1000 ft
800 to 1500m
200 to 500 ft
< 800m
< 200 ft
Symbols :   Thunderstorms  Fog  Heavy snow  Heavy precipitations  Wind > 20 kt







- Airport Elevation : 160 ft
- IATA code : YYR


CYYR - Goose Bay

CURRENT METAR :
  • 220000Z 21010G18KT 15SM SCT030 SCT070 M00/M06 A2980 RMK SC3AC1 SLP095

EXPIRED METARs :
  • 212300Z 21015G21KT 15SM BKN031 BKN070 M00/M06 A2980 RMK SC6AC1 SLP096
  • 212200Z 20014G19KT 15SM SCT040 BKN070 M00/M06 A2981 RMK SC4AC2 SLP098

TAF TAF CYYR
Valid from the 22 at 00:00 until the 23 at 00:00 UTC


212331Z 2200/2224 21012G22KT P6SM BKN030 BKN070
FM221200 23015KT P6SM SCT010 OVC040
TEMPO 2212/2218 P6SM -SHSN
BECMG 2216/2218 23018G28KT
FM221800 23018G28KT P6SM OVC030
TEMPO 2218/2224 P6SM -RASN
BECMG 2222/2224 22008KT RMK NXT FCST BY 220600Z
CZQX FIR / North America



MET'MAP, your aeronautical weather chart ! - Copyright ORBIFLY December 2007 - Disclaimer

ORBIFLY MET'MAP TEAM :

Programming & Development : Alexandra Zaïnal
Concept & Development : Baudouin d'Aumeries
Co-Development & Prog : Marc-Olivier Méhu
Technical & hardware support : Manuel Goepfert

Contact : metmap@orbifly.com




SOURCES & CREDITS :

   NOAA